Hovedside
METAR-TAF:

METAR-TAF

Lufthavner :

Honningsvåg, Norge

Honningsvåg lufthavn

breddegrad: 71-01N, lengdegrad: 025-59E, høyde over havet: 1 m

Gjeldene værobservasjon

Denne rapporten ble laget for 1 time og 53 minutter siden, klokken 05:50 UTC
Vind 18 kt fra Sør-sørvest
Temperatur 2°C
Luftfuktighet 80%
Trykk 1022 hPa
Sikt 10 km eller mer
Brutte skyer i en høyde av 2400 ft

METAR: ENHV 240550Z 20018KT 9999 BKN024 02/M01 Q1022

Tid: 09:43 (07:43 UTC)


TAF: fraværende

Værobservasjoner og værvarsel for over 4000 flyplasser (METAR- og TAF-rapporter).

Tilgjengelige stasjoner er representert av de røde og gule prikkene på kartet.

Hold musepekeren over prikken for å se navnet på stasjonen.

Klikk så for å se værobservasjoner og -varsler.

For å forandre kartet kan du klikke på den grønne knappen med svart kryss for å zoome inn, på den grønne knappen med strek for å zoome ut, eller på de grønne pilene for å se tilstøtende kart.


METAR-TAF: